createdAt,value
2018-01-27T00:01:48.576Z,25.57
2018-01-27T00:04:16.951Z,26.10
2018-01-27T00:06:45.649Z,22.00
2018-01-27T00:09:16.375Z,23.93
2018-01-27T00:11:44.719Z,30.10
2018-01-27T00:14:13.462Z,35.37
2018-01-27T00:16:42.598Z,31.37
2018-01-27T00:19:10.949Z,27.20
2018-01-27T00:21:40.624Z,25.20
2018-01-27T00:24:08.977Z,36.23
2018-01-27T00:26:37.337Z,42.30
2018-01-27T00:29:05.828Z,26.43
2018-01-27T00:31:34.196Z,29.70
2018-01-27T00:34:04.126Z,25.20
2018-01-27T00:36:34.646Z,34.83
2018-01-27T00:39:03.027Z,25.90
2018-01-27T00:41:31.846Z,24.20
2018-01-27T00:44:00.357Z,27.03
2018-01-27T00:46:29.664Z,25.53
2018-01-27T00:48:58.790Z,25.30
2018-01-27T00:51:27.270Z,31.77
2018-01-27T00:53:55.630Z,25.30
2018-01-27T00:56:23.998Z,23.43
2018-01-27T00:58:55.502Z,26.00
2018-01-27T01:01:23.853Z,25.67
2018-01-27T01:03:52.218Z,27.33
2018-01-27T01:06:20.627Z,22.43
2018-01-27T01:08:49.484Z,24.50
2018-01-27T01:11:17.840Z,27.20
2018-01-27T01:13:47.120Z,22.73
2018-01-27T01:16:15.479Z,23.20
2018-01-27T01:18:43.844Z,23.40
2018-01-27T01:21:12.226Z,21.97
2018-01-27T01:23:41.300Z,24.77
2018-01-27T01:26:09.647Z,24.57
2018-01-27T01:28:38.211Z,21.97
2018-01-27T01:31:06.569Z,20.23
2018-01-27T01:33:34.920Z,20.77
2018-01-27T01:36:04.978Z,19.50
2018-01-27T01:38:33.326Z,20.67
2018-01-27T01:41:01.693Z,17.87
2018-01-27T01:43:35.958Z,18.53
2018-01-27T01:46:05.101Z,18.30
2018-01-27T01:48:33.456Z,18.03
2018-01-27T01:51:02.889Z,17.37
2018-01-27T01:53:31.241Z,17.30
2018-01-27T01:56:00.385Z,16.73
2018-01-27T01:58:29.115Z,16.30
2018-01-27T02:00:57.463Z,16.73
2018-01-27T02:03:25.820Z,17.90
2018-01-27T02:05:54.248Z,16.70
2018-01-27T02:08:22.608Z,15.37
2018-01-27T02:10:51.241Z,17.90
2018-01-27T02:13:21.882Z,17.53
2018-01-27T02:15:50.226Z,16.50
2018-01-27T02:18:19.370Z,18.30
2018-01-27T02:20:47.878Z,16.00
2018-01-27T02:23:16.525Z,14.97
2018-01-27T02:25:44.893Z,19.53
2018-01-27T02:28:13.382Z,16.73
2018-01-27T02:30:41.745Z,15.17
2018-01-27T02:33:10.099Z,23.77
2018-01-27T02:35:39.346Z,30.53
2018-01-27T02:38:07.723Z,35.80
2018-01-27T02:40:36.102Z,34.90
2018-01-27T02:43:04.597Z,34.37
2018-01-27T02:45:33.731Z,22.40
2018-01-27T02:48:02.134Z,30.20
2018-01-27T02:50:32.054Z,26.17
2018-01-27T02:53:00.406Z,23.13
2018-01-27T02:55:29.546Z,27.00
2018-01-27T02:57:57.984Z,51.70
2018-01-27T03:00:27.959Z,45.33
2018-01-27T03:02:56.375Z,26.80
2018-01-27T03:05:24.780Z,42.37
2018-01-27T03:07:53.136Z,38.87
2018-01-27T03:10:22.262Z,34.57
2018-01-27T03:12:51.034Z,44.83
2018-01-27T03:15:21.637Z,34.93
2018-01-27T03:17:50.058Z,23.70
2018-01-27T03:20:19.406Z,28.23
2018-01-27T03:22:47.865Z,22.57
2018-01-27T03:25:16.238Z,39.57
2018-01-27T03:27:44.845Z,34.70
2018-01-27T03:30:13.224Z,25.97
2018-01-27T03:32:41.591Z,31.87
2018-01-27T03:35:09.999Z,27.87
2018-01-27T03:37:38.413Z,38.00
2018-01-27T03:40:07.552Z,36.33
2018-01-27T03:42:36.136Z,29.13
2018-01-27T03:45:04.503Z,39.00
2018-01-27T03:47:32.880Z,45.83
2018-01-27T03:50:01.280Z,28.47
2018-01-27T03:52:29.646Z,27.30
2018-01-27T03:54:58.018Z,31.33
2018-01-27T03:57:26.633Z,26.43
2018-01-27T03:59:55.025Z,30.87
2018-01-27T04:02:25.843Z,30.90
2018-01-27T04:04:54.961Z,33.83
2018-01-27T04:07:24.101Z,41.67
2018-01-27T04:09:52.447Z,53.60
2018-01-27T04:12:21.710Z,39.10
2018-01-27T04:14:50.362Z,28.40
2018-01-27T04:17:18.735Z,28.40
2018-01-27T04:19:47.341Z,35.57
2018-01-27T04:22:15.702Z,33.90
2018-01-27T04:24:44.065Z,32.90
2018-01-27T04:27:15.689Z,33.70
2018-01-27T04:29:44.850Z,34.67
2018-01-27T04:32:13.219Z,34.30
2018-01-27T04:34:41.616Z,33.63
2018-01-27T04:37:09.978Z,31.87
2018-01-27T04:39:38.348Z,28.37
2018-01-27T04:42:06.961Z,36.77
2018-01-27T04:44:35.320Z,47.63
2018-01-27T04:47:03.699Z,32.40
2018-01-27T04:49:32.208Z,24.37
2018-01-27T04:52:01.518Z,21.90
2018-01-27T04:54:29.875Z,25.03
2018-01-27T04:56:58.447Z,23.27
2018-01-27T04:59:26.801Z,21.60
2018-01-27T05:01:55.169Z,30.90
2018-01-27T05:04:25.242Z,34.20
2018-01-27T05:06:53.619Z,26.70
2018-01-27T05:09:21.999Z,33.37
2018-01-27T05:11:50.493Z,21.17
2018-01-27T05:14:19.639Z,32.03
2018-01-27T05:16:48.306Z,26.37
2018-01-27T05:19:17.506Z,21.50
2018-01-27T05:21:45.925Z,24.80
2018-01-27T05:24:14.445Z,25.83
2018-01-27T05:26:43.760Z,20.10
2018-01-27T05:29:14.416Z,25.00
2018-01-27T05:31:42.769Z,25.70
2018-01-27T05:34:11.340Z,26.87
2018-01-27T05:36:40.505Z,24.90
2018-01-27T05:39:08.872Z,25.30
2018-01-27T05:41:37.582Z,24.10
2018-01-27T05:44:05.940Z,8.77
2018-01-27T05:46:35.070Z,22.57
2018-01-27T05:49:04.433Z,25.43
2018-01-27T05:51:32.816Z,23.57
2018-01-27T05:54:02.772Z,19.93
2018-01-27T05:56:32.135Z,19.87
2018-01-27T05:59:00.589Z,27.23
2018-01-27T06:01:28.965Z,18.20
2018-01-27T06:03:57.399Z,21.33
2018-01-27T06:06:26.702Z,19.23
2018-01-27T06:08:55.111Z,15.83
2018-01-27T06:11:23.610Z,15.70
2018-01-27T06:13:51.963Z,20.23
2018-01-27T06:16:20.314Z,14.10
2018-01-27T06:18:49.283Z,36.13
2018-01-27T06:21:19.290Z,17.20
2018-01-27T06:23:47.676Z,17.80
2018-01-27T06:26:16.467Z,18.00
2018-01-27T06:28:44.839Z,24.80
2018-01-27T06:31:13.268Z,25.10
2018-01-27T06:33:42.436Z,19.70
2018-01-27T06:36:10.812Z,11.90
2018-01-27T06:38:39.163Z,14.87
2018-01-27T06:41:07.771Z,19.00
2018-01-27T06:43:36.146Z,23.17
2018-01-27T06:46:05.351Z,14.33
2018-01-27T06:48:33.933Z,19.97
2018-01-27T06:51:02.301Z,19.53
2018-01-27T06:53:30.689Z,18.10
2018-01-27T06:55:59.334Z,16.10
2018-01-27T06:58:27.682Z,17.57
2018-01-27T07:00:56.855Z,17.53
2018-01-27T07:03:25.424Z,19.40
2018-01-27T07:05:53.778Z,20.10
2018-01-27T07:08:23.685Z,21.10
2018-01-27T07:10:52.298Z,20.87
2018-01-27T07:13:21.428Z,21.60
2018-01-27T07:15:50.557Z,28.30
2018-01-27T07:18:18.963Z,26.70
2018-01-27T07:20:48.151Z,22.90
2018-01-27T07:23:16.526Z,20.07
2018-01-27T07:25:44.934Z,20.97
2018-01-27T07:28:13.291Z,24.50
2018-01-27T07:30:41.654Z,15.40
2018-01-27T07:33:11.756Z,17.13
2018-01-27T07:35:40.143Z,19.10
2018-01-27T07:38:08.513Z,19.50
2018-01-27T07:40:37.118Z,17.20
2018-01-27T07:43:05.488Z,17.10
2018-01-27T07:45:33.930Z,19.77
2018-01-27T07:48:03.304Z,20.80
2018-01-27T07:50:31.667Z,22.60
2018-01-27T07:53:00.053Z,18.17
2018-01-27T07:55:28.660Z,22.00
2018-01-27T07:57:57.128Z,28.40
2018-01-27T08:00:25.491Z,25.30
2018-01-27T08:02:54.008Z,20.37
2018-01-27T08:05:22.367Z,20.43
2018-01-27T08:07:50.723Z,22.47
2018-01-27T08:10:19.977Z,22.27
2018-01-27T08:12:49.873Z,22.13
2018-01-27T08:15:18.252Z,21.63
2018-01-27T08:17:46.736Z,21.90
2018-01-27T08:20:15.092Z,29.57
2018-01-27T08:22:43.645Z,29.13
2018-01-27T08:25:12.758Z,23.07
2018-01-27T08:27:41.137Z,24.00
2018-01-27T08:30:09.500Z,24.37
2018-01-27T08:32:38.042Z,23.77
2018-01-27T08:35:07.366Z,19.30
2018-01-27T08:37:37.222Z,25.87
2018-01-27T08:40:05.808Z,24.67
2018-01-27T08:42:34.172Z,25.63
2018-01-27T08:45:03.453Z,24.93
2018-01-27T08:47:32.788Z,26.77
2018-01-27T08:50:01.163Z,22.47
2018-01-27T08:52:29.531Z,22.90
2018-01-27T08:54:58.130Z,23.10
2018-01-27T08:57:26.493Z,22.47
2018-01-27T08:59:56.426Z,37.33
2018-01-27T09:02:24.990Z,25.43
2018-01-27T09:04:53.359Z,25.80
2018-01-27T09:07:21.730Z,27.50
2018-01-27T09:09:50.129Z,24.67
2018-01-27T09:12:18.514Z,22.63
2018-01-27T09:14:47.833Z,21.50
2018-01-27T09:17:16.273Z,23.43
2018-01-27T09:19:45.635Z,21.00
2018-01-27T09:22:14.787Z,23.60
2018-01-27T09:24:43.401Z,23.10
2018-01-27T09:27:13.265Z,23.30
2018-01-27T09:29:41.621Z,17.67
2018-01-27T09:32:10.788Z,19.50
2018-01-27T09:34:40.650Z,14.17
2018-01-27T09:37:09.754Z,19.13
2018-01-27T09:39:39.067Z,9.10
2018-01-27T09:42:07.444Z,23.13
2018-01-27T09:44:35.941Z,13.90
2018-01-27T09:47:04.338Z,13.80
2018-01-27T09:49:33.003Z,23.30
2018-01-27T09:52:01.386Z,14.63
2018-01-27T09:54:30.576Z,14.37
2018-01-27T09:56:58.940Z,14.70
2018-01-27T09:59:27.290Z,6.60
2018-01-27T10:01:56.754Z,18.27
2018-01-27T10:04:26.635Z,12.53
2018-01-27T10:06:55.029Z,15.50
2018-01-27T10:09:23.616Z,19.10
2018-01-27T10:11:51.974Z,17.90
2018-01-27T10:14:20.378Z,16.60
2018-01-27T10:16:48.782Z,17.63
2018-01-27T10:19:17.193Z,10.37
2018-01-27T10:21:45.559Z,15.53
2018-01-27T10:24:14.414Z,14.03
2018-01-27T10:26:43.868Z,10.53
2018-01-27T10:29:13.730Z,11.53
2018-01-27T10:31:42.124Z,5.83
2018-01-27T10:34:10.488Z,11.93
2018-01-27T10:36:38.856Z,20.17
2018-01-27T10:39:07.653Z,18.07
2018-01-27T10:41:36.736Z,21.17
2018-01-27T10:44:05.102Z,21.73
2018-01-27T10:46:33.719Z,19.43
2018-01-27T10:49:02.128Z,21.20
2018-01-27T10:51:31.250Z,23.93
2018-01-27T10:54:01.309Z,20.63
2018-01-27T10:56:29.699Z,20.07
2018-01-27T10:58:58.153Z,19.10
2018-01-27T11:01:26.561Z,27.47
2018-01-27T11:03:55.207Z,14.10
2018-01-27T11:06:23.586Z,16.27
2018-01-27T11:08:52.135Z,20.10
2018-01-27T11:11:20.497Z,14.07
2018-01-27T11:13:49.614Z,12.00
2018-01-27T11:16:20.595Z,18.67
2018-01-27T11:18:48.948Z,11.00
2018-01-27T11:21:17.300Z,6.53
2018-01-27T11:23:46.160Z,7.90
2018-01-27T11:26:14.526Z,14.50
2018-01-27T11:28:44.050Z,16.87
2018-01-27T11:31:12.496Z,11.70
2018-01-27T11:33:40.858Z,13.60
2018-01-27T11:36:09.227Z,13.27
2018-01-27T11:38:37.669Z,14.47
2018-01-27T11:41:06.782Z,16.53
2018-01-27T11:43:35.914Z,17.40
2018-01-27T11:46:04.394Z,12.10
2018-01-27T11:48:32.748Z,11.63
2018-01-27T11:51:01.099Z,12.00
2018-01-27T11:53:31.554Z,15.50
2018-01-27T11:56:00.451Z,12.07
2018-01-27T11:58:28.825Z,14.33
2018-01-27T12:00:57.477Z,21.43
2018-01-27T12:03:25.864Z,20.67
2018-01-27T12:05:55.089Z,19.10
2018-01-27T12:08:23.483Z,15.03
2018-01-27T12:10:51.843Z,18.23
2018-01-27T12:13:20.197Z,21.23
2018-01-27T12:15:49.447Z,10.80
2018-01-27T12:18:18.591Z,16.47
2018-01-27T12:20:47.718Z,19.13
2018-01-27T12:23:17.042Z,18.37
2018-01-27T12:25:45.395Z,6.50
2018-01-27T12:28:13.762Z,13.57
2018-01-27T12:30:43.307Z,11.57
2018-01-27T12:33:11.652Z,14.03
2018-01-27T12:35:40.017Z,17.33
2018-01-27T12:38:09.384Z,26.07
2018-01-27T12:40:37.738Z,22.00
2018-01-27T12:43:06.172Z,17.17
2018-01-27T12:45:35.455Z,25.40
2018-01-27T12:48:04.580Z,15.87
2018-01-27T12:50:32.959Z,19.70
2018-01-27T12:53:01.517Z,19.07
2018-01-27T12:55:30.643Z,13.20
2018-01-27T12:58:00.497Z,11.37
2018-01-27T13:00:28.938Z,10.80
2018-01-27T13:02:57.339Z,15.90
2018-01-27T13:05:25.712Z,26.00
2018-01-27T13:07:56.266Z,21.90
2018-01-27T13:10:25.365Z,21.77
2018-01-27T13:12:53.787Z,19.87
2018-01-27T13:15:23.245Z,14.87
2018-01-27T13:17:51.622Z,10.47
2018-01-27T13:20:20.021Z,20.80
2018-01-27T13:22:48.454Z,16.53
2018-01-27T13:25:16.917Z,13.63
2018-01-27T13:27:46.037Z,22.87
2018-01-27T13:30:14.449Z,12.77
2018-01-27T13:32:44.042Z,20.40
2018-01-27T13:35:14.141Z,22.57
2018-01-27T13:37:42.758Z,20.07
2018-01-27T13:40:11.128Z,28.37
2018-01-27T13:42:39.552Z,27.90
2018-01-27T13:45:09.137Z,18.00
2018-01-27T13:47:37.524Z,16.23
2018-01-27T13:50:06.690Z,20.70
2018-01-27T13:52:35.472Z,20.03
2018-01-27T13:55:03.859Z,17.83
2018-01-27T13:57:32.288Z,22.57
2018-01-27T14:00:00.965Z,20.60
2018-01-27T14:02:30.107Z,18.20
2018-01-27T14:04:58.581Z,19.63
2018-01-27T14:07:27.059Z,22.97
2018-01-27T14:09:55.444Z,22.63
2018-01-27T14:12:23.813Z,15.80
2018-01-27T14:14:52.281Z,24.40
2018-01-27T14:17:20.653Z,20.53
2018-01-27T14:19:49.013Z,20.43
2018-01-27T14:22:18.977Z,23.57
2018-01-27T14:24:48.101Z,13.40
2018-01-27T14:27:16.474Z,25.57
2018-01-27T14:29:44.987Z,18.20
2018-01-27T14:32:14.119Z,18.23
2018-01-27T14:34:42.950Z,15.93
2018-01-27T14:37:13.217Z,17.60
2018-01-27T14:39:41.571Z,22.17
2018-01-27T14:42:10.699Z,14.57
2018-01-27T14:44:39.100Z,16.97
2018-01-27T14:47:07.501Z,18.00
2018-01-27T14:49:35.860Z,18.30
2018-01-27T14:52:04.328Z,24.47
2018-01-27T14:54:32.740Z,19.20
2018-01-27T14:57:01.117Z,26.00
2018-01-27T14:59:29.512Z,15.57
2018-01-27T15:01:58.650Z,12.40
2018-01-27T15:04:27.037Z,23.97
2018-01-27T15:06:55.529Z,22.23
2018-01-27T15:09:23.885Z,17.63
2018-01-27T15:11:52.468Z,16.70
2018-01-27T15:14:22.630Z,23.37
2018-01-27T15:16:51.012Z,23.00
2018-01-27T15:19:19.417Z,17.40
2018-01-27T15:21:48.779Z,21.90
2018-01-27T15:24:17.143Z,20.07
2018-01-27T15:26:46.248Z,14.20
2018-01-27T15:29:15.043Z,19.17
2018-01-27T15:31:43.393Z,15.90
2018-01-27T15:34:11.753Z,24.40
2018-01-27T15:36:41.709Z,18.63
2018-01-27T15:39:10.848Z,16.10
2018-01-27T15:41:39.991Z,25.00
2018-01-27T15:44:08.598Z,18.87
2018-01-27T15:46:36.963Z,16.77
2018-01-27T15:49:06.144Z,18.00
2018-01-27T15:51:34.538Z,22.40
2018-01-27T15:54:03.803Z,18.27
2018-01-27T15:56:32.159Z,23.80
2018-01-27T15:59:01.368Z,18.00
2018-01-27T16:01:31.313Z,15.60
2018-01-27T16:04:00.413Z,10.93
2018-01-27T16:06:28.803Z,9.87
2018-01-27T16:08:57.181Z,16.17
2018-01-27T16:11:25.565Z,10.40
2018-01-27T16:13:54.254Z,19.67
2018-01-27T16:16:22.615Z,14.30
2018-01-27T16:18:50.975Z,13.50
2018-01-27T16:21:19.519Z,13.93
2018-01-27T16:23:47.874Z,18.73
2018-01-27T16:26:16.233Z,20.47
2018-01-27T16:28:44.637Z,20.20
2018-01-27T16:31:13.010Z,16.10
2018-01-27T16:33:41.401Z,17.23
2018-01-27T16:36:09.849Z,24.40
2018-01-27T16:38:38.510Z,17.23
2018-01-27T16:41:08.493Z,27.67
2018-01-27T16:43:37.048Z,17.53
2018-01-27T16:46:06.170Z,14.03
2018-01-27T16:48:34.530Z,17.50
2018-01-27T16:51:04.120Z,20.67
2018-01-27T16:53:32.482Z,23.93
2018-01-27T16:56:00.857Z,18.97
2018-01-27T16:58:29.329Z,21.70
2018-01-27T17:00:57.717Z,32.40
2018-01-27T17:03:26.226Z,31.13
2018-01-27T17:05:54.673Z,36.30
2018-01-27T17:08:23.033Z,26.03
2018-01-27T17:10:52.166Z,21.90
2018-01-27T17:13:20.610Z,23.03
2018-01-27T17:15:51.269Z,19.43
2018-01-27T17:18:19.638Z,22.00
2018-01-27T17:20:48.037Z,20.20
2018-01-27T17:23:16.385Z,20.73
2018-01-27T17:25:44.743Z,19.17
2018-01-27T17:28:15.240Z,14.67
2018-01-27T17:30:43.604Z,18.70
2018-01-27T17:33:11.956Z,17.73
2018-01-27T17:35:40.354Z,23.73
2018-01-27T17:38:08.723Z,20.23
2018-01-27T17:40:39.143Z,24.27
2018-01-27T17:43:07.536Z,29.73
2018-01-27T17:45:35.892Z,24.53
2018-01-27T17:48:04.312Z,22.07
2018-01-27T17:50:32.891Z,20.67
2018-01-27T17:53:02.289Z,23.50
2018-01-27T17:55:31.628Z,23.93
2018-01-27T17:58:00.977Z,29.27
2018-01-27T18:00:29.372Z,29.07
2018-01-27T18:02:58.492Z,31.77
2018-01-27T18:05:27.060Z,26.43
2018-01-27T18:07:55.421Z,31.67
2018-01-27T18:10:23.776Z,28.93
2018-01-27T18:12:52.627Z,33.70
2018-01-27T18:15:21.085Z,25.00
2018-01-27T18:17:50.553Z,36.53
2018-01-27T18:20:18.958Z,22.23
2018-01-27T18:22:47.314Z,29.27
2018-01-27T18:25:15.697Z,29.70
2018-01-27T18:27:44.186Z,28.43
2018-01-27T18:30:13.354Z,20.10
2018-01-27T18:32:42.478Z,31.47
2018-01-27T18:35:11.225Z,27.73
2018-01-27T18:37:40.427Z,26.40
2018-01-27T18:40:08.793Z,34.50
2018-01-27T18:42:38.823Z,26.47
2018-01-27T18:45:07.958Z,27.60
2018-01-27T18:47:36.315Z,25.70
2018-01-27T18:50:04.947Z,25.87
2018-01-27T18:52:33.299Z,23.03
2018-01-27T18:55:03.239Z,27.33
2018-01-27T18:57:31.700Z,20.53
2018-01-27T19:00:00.074Z,27.00
2018-01-27T19:02:28.434Z,33.53
2018-01-27T19:04:56.949Z,29.13
2018-01-27T19:07:26.200Z,25.00
2018-01-27T19:09:55.305Z,28.83
2018-01-27T19:12:23.750Z,33.63
2018-01-27T19:14:52.213Z,27.50
2018-01-27T19:17:20.614Z,27.73
2018-01-27T19:19:50.698Z,30.53
2018-01-27T19:22:19.070Z,32.27
2018-01-27T19:24:47.452Z,28.90
2018-01-27T19:27:16.143Z,30.63
2018-01-27T19:29:44.492Z,22.30
2018-01-27T19:32:14.390Z,31.23
2018-01-27T19:34:42.783Z,29.03
2018-01-27T19:37:11.947Z,24.23
2018-01-27T19:39:40.304Z,24.50
2018-01-27T19:42:08.687Z,26.40
2018-01-27T19:44:38.123Z,26.60
2018-01-27T19:47:07.290Z,28.50
2018-01-27T19:49:35.744Z,23.90
2018-01-27T19:52:04.569Z,21.70
2018-01-27T19:54:32.935Z,19.27
2018-01-27T19:57:01.696Z,21.00
2018-01-27T19:59:30.061Z,22.50
2018-01-27T20:01:58.413Z,26.33
2018-01-27T20:04:27.986Z,27.23
2018-01-27T20:06:56.349Z,22.80
2018-01-27T20:09:25.525Z,23.07
2018-01-27T20:11:53.931Z,23.10
2018-01-27T20:14:22.278Z,16.93
2018-01-27T20:16:50.626Z,24.77
2018-01-27T20:19:19.286Z,23.33
2018-01-27T20:21:48.446Z,24.57
2018-01-27T20:24:16.806Z,21.47
2018-01-27T20:26:45.420Z,21.40
2018-01-27T20:29:13.766Z,23.77
2018-01-27T20:31:42.125Z,24.10
2018-01-27T20:34:11.431Z,23.97
2018-01-27T20:36:39.794Z,18.47
2018-01-27T20:39:08.171Z,13.50
2018-01-27T20:41:37.399Z,20.10
2018-01-27T20:44:05.759Z,19.50
2018-01-27T20:46:37.502Z,17.60
2018-01-27T20:49:06.019Z,22.17
2018-01-27T20:51:34.411Z,22.20
2018-01-27T20:54:02.814Z,19.50
2018-01-27T20:56:31.838Z,18.97
2018-01-27T20:59:01.086Z,16.93
2018-01-27T21:01:29.446Z,22.20
2018-01-27T21:03:57.909Z,20.97
2018-01-27T21:06:27.082Z,15.20
2018-01-27T21:08:55.453Z,10.90
2018-01-27T21:11:25.645Z,20.07
2018-01-27T21:13:54.010Z,13.37
2018-01-27T21:16:22.368Z,15.40
2018-01-27T21:18:51.545Z,16.30
2018-01-27T21:21:20.674Z,16.30
2018-01-27T21:23:49.859Z,13.63
2018-01-27T21:26:18.374Z,19.30
2018-01-27T21:28:46.722Z,13.60
2018-01-27T21:31:15.079Z,15.33
2018-01-27T21:33:43.552Z,16.40
2018-01-27T21:36:11.954Z,16.70
2018-01-27T21:38:41.077Z,11.43
2018-01-27T21:41:09.545Z,8.90
2018-01-27T21:43:37.973Z,12.23
2018-01-27T21:46:06.329Z,12.63
2018-01-27T21:48:35.073Z,16.90
2018-01-27T21:51:04.213Z,11.33
2018-01-27T21:53:32.564Z,12.20
2018-01-27T21:56:01.142Z,13.33
2018-01-27T21:58:29.504Z,15.33
2018-01-27T22:00:58.683Z,12.37
2018-01-27T22:03:36.110Z,10.40
2018-01-27T22:06:04.492Z,9.67
2018-01-27T22:08:32.862Z,15.10
2018-01-27T22:11:02.320Z,11.77
2018-01-27T22:13:31.442Z,12.97
2018-01-27T22:16:00.558Z,14.73
2018-01-27T22:18:29.190Z,11.47
2018-01-27T22:20:57.537Z,13.67
2018-01-27T22:23:26.109Z,11.70
2018-01-27T22:25:54.720Z,11.27
2018-01-27T22:28:23.070Z,14.50
2018-01-27T22:30:52.240Z,15.63
2018-01-27T22:33:20.759Z,12.80
2018-01-27T22:35:49.169Z,12.27
2018-01-27T22:38:17.524Z,11.30
2018-01-27T22:40:46.043Z,10.27
2018-01-27T22:43:14.403Z,15.97
2018-01-27T22:45:42.771Z,17.90
2018-01-27T22:48:12.119Z,16.40
2018-01-27T22:50:40.554Z,15.87
2018-01-27T22:53:08.901Z,17.53
2018-01-27T22:55:37.286Z,14.50
2018-01-27T22:58:05.656Z,17.90
2018-01-27T23:00:36.341Z,13.13
2018-01-27T23:03:04.889Z,18.53
2018-01-27T23:05:34.015Z,13.63
2018-01-27T23:08:03.167Z,11.37
2018-01-27T23:10:31.588Z,14.87
2018-01-27T23:13:01.021Z,8.50
2018-01-27T23:15:29.372Z,12.40
2018-01-27T23:17:57.979Z,10.43
2018-01-27T23:20:26.338Z,10.90
2018-01-27T23:22:55.546Z,10.60
2018-01-27T23:25:24.156Z,10.73
2018-01-27T23:27:53.389Z,9.60
2018-01-27T23:30:21.814Z,14.40
2018-01-27T23:32:50.628Z,14.23
2018-01-27T23:35:19.841Z,10.00
2018-01-27T23:37:48.455Z,11.17
2018-01-27T23:40:17.058Z,15.50
2018-01-27T23:42:45.475Z,12.77
2018-01-27T23:45:14.676Z,11.03
2018-01-27T23:47:43.237Z,10.67
2018-01-27T23:50:11.707Z,10.33
2018-01-27T23:52:40.250Z,7.80
2018-01-27T23:55:08.834Z,11.37
2018-01-27T23:57:37.273Z,8.93
